Wetterdaten: Woche 08.02.10 - 14.02.10 (KW6)
Datum Zeit Temperatur Luftfeuchte Luftdruck Niederschlag Wind Richtung Sonnenschein Solar Taupunkt Windchill Windben
08.02.2010 00:00 1.2 C 79 % 1014.3 hPa 0.0 l/m 1.6 km/h (1 Bft) N-NO 0.00 h 0 W/m -2.0 C 1.1 C 4.3 km/h (1 Bft)
08.02.2010 01:00 1.0 C 78 % 1013.6 hPa 0.0 l/m 1.2 km/h (1 Bft) N 0.00 h 0 W/m -2.3 C 0.9 C 3.3 km/h (1 Bft)
08.02.2010 02:00 0.9 C 76 % 1013.0 hPa 0.0 l/m 0.7 km/h (0 Bft) O-NO 0.00 h 0 W/m -2.8 C 0.8 C 2.2 km/h (1 Bft)
08.02.2010 03:00 0.4 C 76 % 1012.5 hPa 0.0 l/m 0.7 km/h (0 Bft) N-NW 0.00 h 0 W/m -3.2 C 0.4 C 2.0 km/h (1 Bft)
08.02.2010 04:00 0.2 C 77 % 1012.0 hPa 0.0 l/m 0.6 km/h (0 Bft) N 0.00 h 0 W/m -3.4 C 0.1 C 1.7 km/h (1 Bft)
08.02.2010 05:00 0.1 C 77 % 1011.7 hPa 0.0 l/m 0.6 km/h (0 Bft) N-NO 0.00 h 0 W/m -3.4 C 0.1 C 2.5 km/h (1 Bft)
08.02.2010 06:00 -0.0 C 78 % 1011.0 hPa 0.0 l/m 0.8 km/h (0 Bft) O 0.00 h 0 W/m -3.4 C -0.0 C 2.9 km/h (1 Bft)
08.02.2010 07:00 -0.1 C 78 % 1010.1 hPa 0.0 l/m 2.5 km/h (1 Bft) N-NO 0.00 h 0 W/m -3.5 C -0.4 C 5.9 km/h (2 Bft)
08.02.2010 08:00 -0.1 C 78 % 1009.6 hPa 0.0 l/m 1.7 km/h (1 Bft) O-SO 0.00 h 16 W/m -3.6 C -0.3 C 4.3 km/h (1 Bft)
08.02.2010 09:00 -0.3 C 77 % 1009.3 hPa 0.0 l/m 2.4 km/h (1 Bft) N-NO 0.00 h 41 W/m -3.9 C -0.6 C 5.8 km/h (2 Bft)
08.02.2010 10:00 -0.4 C 76 % 1009.1 hPa 0.0 l/m 1.2 km/h (1 Bft) O-SO 0.00 h 54 W/m -4.1 C -0.5 C 3.4 km/h (1 Bft)
08.02.2010 11:00 -0.3 C 75 % 1008.6 hPa 0.0 l/m 3.1 km/h (1 Bft) O 0.00 h 90 W/m -4.2 C -0.8 C 6.7 km/h (2 Bft)
08.02.2010 12:00 0.1 C 74 % 1007.7 hPa 0.0 l/m 1.0 km/h (0 Bft) O-SO 0.00 h 114 W/m -4.0 C 0.0 C 3.2 km/h (1 Bft)
08.02.2010 13:00 0.5 C 72 % 1007.0 hPa 0.0 l/m 5.8 km/h (2 Bft) O-SO 0.00 h 119 W/m -3.9 C -1.1 C 9.2 km/h (2 Bft)
08.02.2010 14:00 0.7 C 72 % 1006.4 hPa 0.0 l/m 5.2 km/h (1 Bft) O-SO 0.00 h 86 W/m -3.8 C -0.7 C 8.0 km/h (2 Bft)
08.02.2010 15:00 0.7 C 71 % 1006.0 hPa 0.0 l/m 5.1 km/h (1 Bft) O-SO 0.00 h 72 W/m -4.0 C -0.7 C 8.4 km/h (2 Bft)
08.02.2010 16:00 0.6 C 71 % 1005.7 hPa 0.0 l/m 4.6 km/h (1 Bft) O-SO 0.00 h 38 W/m -4.1 C -0.5 C 7.5 km/h (2 Bft)
08.02.2010 17:00 0.4 C 72 % 1005.2 hPa 0.0 l/m 3.4 km/h (1 Bft) O 0.00 h 11 W/m -4.1 C -0.2 C 6.2 km/h (2 Bft)
08.02.2010 18:00 0.3 C 72 % 1005.1 hPa 0.0 l/m 1.6 km/h (1 Bft) NO 0.00 h 0 W/m -4.1 C 0.2 C 4.3 km/h (1 Bft)
08.02.2010 19:00 0.2 C 73 % 1004.8 hPa 0.0 l/m 0.9 km/h (0 Bft) O 0.00 h 0 W/m -4.0 C 0.1 C 2.9 km/h (1 Bft)
08.02.2010 20:00 -0.0 C 74 % 1004.5 hPa 0.0 l/m 0.7 km/h (0 Bft) O-NO 0.00 h 0 W/m -4.1 C -0.0 C 2.7 km/h (1 Bft)
08.02.2010 21:00 -0.1 C 74 % 1004.6 hPa 0.0 l/m 1.1 km/h (0 Bft) NO 0.00 h 0 W/m -4.2 C -0.1 C 2.9 km/h (1 Bft)
08.02.2010 22:00 -0.3 C 74 % 1004.5 hPa 0.0 l/m 1.1 km/h (1 Bft) N-NO 0.00 h 0 W/m -4.4 C -0.4 C 3.3 km/h (1 Bft)
08.02.2010 23:00 -0.4 C 75 % 1004.5 hPa 0.0 l/m 1.1 km/h (0 Bft) N-NO 0.00 h 0 W/m -4.4 C -0.5 C 3.5 km/h (1 Bft)
09.02.2010 00:00 -0.6 C 76 % 1004.4 hPa 0.0 l/m 0.6 km/h (0 Bft) N-NO 0.00 h 0 W/m -4.4 C -0.6 C 2.4 km/h (1 Bft)
09.02.2010 01:00 -0.6 C 77 % 1004.0 hPa 0.0 l/m 0.8 km/h (0 Bft) NO 0.00 h 0 W/m -4.2 C -0.6 C 3.0 km/h (1 Bft)
09.02.2010 02:00 -0.7 C 78 % 1003.9 hPa 0.0 l/m 3.6 km/h (1 Bft) O-SO 0.00 h 0 W/m -4.1 C -1.7 C 6.4 km/h (2 Bft)
09.02.2010 03:00 -0.9 C 79 % 1003.8 hPa 0.0 l/m 3.4 km/h (1 Bft) O-SO 0.00 h 0 W/m -4.1 C -1.7 C 5.7 km/h (1 Bft)
09.02.2010 04:00 -0.9 C 80 % 1003.5 hPa 0.0 l/m 3.2 km/h (1 Bft) SO 0.00 h 0 W/m -3.9 C -1.5 C 5.4 km/h (1 Bft)
09.02.2010 05:00 -1.1 C 80 % 1003.2 hPa 0.0 l/m 2.7 km/h (1 Bft) SO 0.00 h 0 W/m -4.0 C -1.5 C 4.9 km/h (1 Bft)
09.02.2010 06:00 -1.1 C 81 % 1002.9 hPa 0.0 l/m 2.8 km/h (1 Bft) O-SO 0.00 h 0 W/m -3.9 C -1.7 C 5.0 km/h (1 Bft)
09.02.2010 07:00 -1.1 C 81 % 1002.7 hPa 0.0 l/m 0.7 km/h (0 Bft) NO 0.00 h 6 W/m -3.9 C -1.1 C 2.7 km/h (1 Bft)
09.02.2010 08:00 -1.0 C 80 % 1002.8 hPa 0.0 l/m 2.1 km/h (1 Bft) O-SO 0.00 h 23 W/m -4.0 C -1.4 C 4.4 km/h (1 Bft)
09.02.2010 09:00 -0.8 C 79 % 1002.4 hPa 0.0 l/m 3.2 km/h (1 Bft) O-SO 0.02 h 99 W/m -4.1 C -1.6 C 6.2 km/h (2 Bft)
09.02.2010 10:00 -0.1 C 76 % 1002.1 hPa 0.0 l/m 3.8 km/h (1 Bft) O-SO 0.65 h 209 W/m -3.9 C -0.9 C 7.5 km/h (2 Bft)
09.02.2010 11:00 0.3 C 74 % 1002.4 hPa 0.0 l/m 3.4 km/h (1 Bft) O-SO 0.37 h 219 W/m -3.7 C -0.5 C 6.0 km/h (2 Bft)
09.02.2010 12:00 1.0 C 72 % 1001.8 hPa 0.0 l/m 2.3 km/h (1 Bft) O-SO 0.58 h 253 W/m -3.4 C 0.6 C 4.5 km/h (1 Bft)
09.02.2010 13:00 1.7 C 70 % 1001.2 hPa 0.0 l/m 1.5 km/h (1 Bft) N-NO 0.08 h 198 W/m -3.1 C 1.5 C 3.7 km/h (1 Bft)
09.02.2010 14:00 2.1 C 69 % 1001.1 hPa 0.0 l/m 2.5 km/h (1 Bft) N 0.23 h 180 W/m -2.9 C 1.9 C 5.2 km/h (1 Bft)
09.02.2010 15:00 1.6 C 70 % 1000.8 hPa 0.0 l/m 4.6 km/h (1 Bft) O-SO 0.47 h 161 W/m -3.2 C 0.6 C 7.2 km/h (2 Bft)
09.02.2010 16:00 1.1 C 73 % 1000.7 hPa 0.0 l/m 4.3 km/h (1 Bft) O-SO 0.00 h 65 W/m -3.2 C 0.3 C 6.6 km/h (2 Bft)
09.02.2010 17:00 0.7 C 74 % 1001.2 hPa 0.0 l/m 2.3 km/h (1 Bft) O-SO 0.00 h 15 W/m -3.3 C 0.7 C 4.0 km/h (1 Bft)
09.02.2010 18:00 0.2 C 77 % 1001.3 hPa 0.0 l/m 5.4 km/h (1 Bft) O-SO 0.00 h 0 W/m -3.4 C -1.4 C 7.3 km/h (2 Bft)
09.02.2010 19:00 -0.0 C 77 % 1001.6 hPa 0.0 l/m 2.4 km/h (1 Bft) SO 0.00 h 0 W/m -3.6 C -0.2 C 4.0 km/h (1 Bft)
09.02.2010 20:00 -0.1 C 77 % 1002.0 hPa 0.0 l/m 0.3 km/h (0 Bft) SO 0.00 h 0 W/m -3.7 C -0.1 C 1.0 km/h (0 Bft)
09.02.2010 21:00 -0.1 C 77 % 1002.3 hPa 0.0 l/m 0.2 km/h (0 Bft) S-SO 0.00 h 0 W/m -3.6 C -0.1 C 0.6 km/h (0 Bft)
09.02.2010 22:00 0.0 C 81 % 1002.6 hPa 0.0 l/m 0.2 km/h (0 Bft) W 0.00 h 0 W/m -2.9 C 0.0 C 1.1 km/h (1 Bft)
09.02.2010 23:00 -0.2 C 85 % 1002.8 hPa 0.4 l/m 0.5 km/h (0 Bft) W 0.00 h 0 W/m -2.5 C -0.2 C 1.1 km/h (1 Bft)
10.02.2010 00:00 -0.9 C 88 % 1003.0 hPa 0.2 l/m 1.9 km/h (1 Bft) W-NW 0.00 h 0 W/m -2.7 C -1.1 C 3.4 km/h (1 Bft)
10.02.2010 01:00 -1.3 C 89 % 1003.0 hPa 0.4 l/m 0.9 km/h (0 Bft) W-NW 0.00 h 0 W/m -2.9 C -1.3 C 2.3 km/h (1 Bft)
10.02.2010 02:00 -1.8 C 88 % 1003.4 hPa 0.2 l/m 3.9 km/h (1 Bft) W 0.00 h 0 W/m -3.4 C -2.6 C 6.4 km/h (2 Bft)
10.02.2010 03:00 -2.0 C 88 % 1003.3 hPa 0.2 l/m 1.3 km/h (1 Bft) W-SW 0.00 h 0 W/m -3.8 C -2.1 C 2.8 km/h (1 Bft)
10.02.2010 04:00 -2.4 C 88 % 1003.4 hPa 0.0 l/m 2.8 km/h (1 Bft) W 0.00 h 0 W/m -4.2 C -3.1 C 4.6 km/h (1 Bft)
10.02.2010 05:00 -2.7 C 88 % 1003.8 hPa 0.4 l/m 1.7 km/h (1 Bft) W 0.00 h 0 W/m -4.4 C -2.8 C 3.2 km/h (1 Bft)
10.02.2010 06:00 -3.0 C 88 % 1004.2 hPa 0.2 l/m 2.6 km/h (1 Bft) W-NW 0.00 h 0 W/m -4.7 C -3.2 C 4.5 km/h (1 Bft)
10.02.2010 07:00 -3.5 C 87 % 1004.8 hPa 0.2 l/m 3.7 km/h (1 Bft) W 0.00 h 0 W/m -5.3 C -4.2 C 6.3 km/h (2 Bft)
10.02.2010 08:00 -3.7 C 87 % 1005.5 hPa 0.2 l/m 3.2 km/h (1 Bft) W 0.00 h 8 W/m -5.6 C -4.1 C 5.4 km/h (1 Bft)
10.02.2010 09:00 -3.8 C 86 % 1006.0 hPa 0.2 l/m 1.3 km/h (1 Bft) W-SW 0.00 h 21 W/m -5.8 C -3.8 C 3.1 km/h (1 Bft)
10.02.2010 10:00 -3.5 C 85 % 1006.2 hPa 0.2 l/m 0.9 km/h (0 Bft) W-SW 0.00 h 33 W/m -5.6 C -3.5 C 2.2 km/h (1 Bft)
10.02.2010 11:00 -3.3 C 84 % 1006.5 hPa 0.2 l/m 1.4 km/h (1 Bft) W-NW 0.00 h 30 W/m -5.6 C -3.3 C 3.4 km/h (1 Bft)
10.02.2010 12:00 -3.5 C 85 % 1006.5 hPa 0.2 l/m 2.5 km/h (1 Bft) W 0.00 h 34 W/m -5.7 C -3.7 C 4.6 km/h (1 Bft)
10.02.2010 13:00 -3.4 C 84 % 1006.2 hPa 0.2 l/m 1.2 km/h (1 Bft) W 0.00 h 33 W/m -5.8 C -3.5 C 3.0 km/h (1 Bft)
10.02.2010 14:00 -3.7 C 82 % 1006.1 hPa 0.2 l/m 3.7 km/h (1 Bft) W 0.00 h 27 W/m -6.3 C -4.8 C 6.2 km/h (2 Bft)
10.02.2010 15:00 -4.0 C 80 % 1006.3 hPa 0.0 l/m 0.7 km/h (0 Bft) W-SW 0.00 h 17 W/m -6.9 C -4.0 C 1.8 km/h (1 Bft)
10.02.2010 16:00 -4.1 C 77 % 1006.6 hPa 0.0 l/m 1.3 km/h (1 Bft) W 0.00 h 12 W/m -7.5 C -4.3 C 2.9 km/h (1 Bft)
10.02.2010 17:00 -4.5 C 75 % 1007.0 hPa 0.0 l/m 1.8 km/h (1 Bft) W-NW 0.00 h 6 W/m -8.3 C -4.8 C 3.4 km/h (1 Bft)
10.02.2010 18:00 -4.9 C 76 % 1007.6 hPa 0.0 l/m 0.3 km/h (0 Bft) W-NW 0.00 h 0 W/m -8.4 C -4.9 C 0.9 km/h (0 Bft)
10.02.2010 19:00 -5.1 C 78 % 1008.0 hPa 0.0 l/m 2.1 km/h (1 Bft) N 0.00 h 0 W/m -8.2 C -5.5 C 4.3 km/h (1 Bft)
10.02.2010 20:00 -5.3 C 74 % 1008.0 hPa 0.0 l/m 2.1 km/h (1 Bft) NO 0.00 h 0 W/m -9.2 C -5.7 C 5.1 km/h (1 Bft)
10.02.2010 21:00 -5.6 C 70 % 1008.1 hPa 0.0 l/m 1.6 km/h (1 Bft) NO 0.00 h 0 W/m -10.1 C -5.7 C 4.4 km/h (1 Bft)
10.02.2010 22:00 -5.8 C 70 % 1007.6 hPa 0.0 l/m 1.1 km/h (1 Bft) N-NO 0.00 h 0 W/m -10.3 C -5.9 C 3.4 km/h (1 Bft)
10.02.2010 23:00 -5.9 C 70 % 1007.1 hPa 0.0 l/m 3.3 km/h (1 Bft) N-NO 0.00 h 0 W/m -10.5 C -6.8 C 7.1 km/h (2 Bft)
11.02.2010 00:00 -6.1 C 69 % 1006.8 hPa 0.0 l/m 2.7 km/h (1 Bft) N 0.00 h 0 W/m -10.9 C -6.8 C 5.8 km/h (2 Bft)
11.02.2010 01:00 -6.3 C 72 % 1006.3 hPa 0.0 l/m 0.9 km/h (0 Bft) N 0.00 h 0 W/m -10.6 C -6.3 C 2.9 km/h (1 Bft)
11.02.2010 02:00 -6.5 C 75 % 1006.1 hPa 0.0 l/m 0.9 km/h (0 Bft) N 0.00 h 0 W/m -10.1 C -6.5 C 2.7 km/h (1 Bft)
11.02.2010 03:00 -6.7 C 80 % 1006.0 hPa 0.0 l/m 0.4 km/h (0 Bft) N-NW 0.00 h 0 W/m -9.6 C -6.7 C 1.1 km/h (0 Bft)
11.02.2010 04:00 -6.8 C 82 % 1005.6 hPa 0.0 l/m 0.2 km/h (0 Bft) NO 0.00 h 0 W/m -9.4 C -6.8 C 0.9 km/h (0 Bft)
11.02.2010 05:00 -6.9 C 83 % 1005.3 hPa 0.2 l/m 0.1 km/h (0 Bft) NO 0.00 h 0 W/m -9.2 C -6.9 C 0.2 km/h (0 Bft)
11.02.2010 06:00 -7.0 C 84 % 1004.9 hPa 0.0 l/m 0.1 km/h (0 Bft) W-NW 0.00 h 0 W/m -9.2 C -7.0 C 0.4 km/h (0 Bft)
11.02.2010 07:00 -7.4 C 85 % 1005.0 hPa 0.0 l/m 0.1 km/h (0 Bft) W-NW 0.00 h 6 W/m -9.6 C -7.4 C 0.3 km/h (0 Bft)
11.02.2010 08:00 -7.3 C 85 % 1005.1 hPa 0.0 l/m 0.1 km/h (0 Bft) W-NW 0.00 h 23 W/m -9.3 C -7.3 C 0.6 km/h (0 Bft)
11.02.2010 09:00 -6.1 C 82 % 1005.0 hPa 0.0 l/m 1.4 km/h (1 Bft) N-NO 0.00 h 53 W/m -8.6 C -6.3 C 3.3 km/h (1 Bft)
11.02.2010 10:00 -5.0 C 76 % 1004.9 hPa 0.2 l/m 3.0 km/h (1 Bft) N-NW 0.00 h 78 W/m -8.5 C -5.7 C 6.3 km/h (2 Bft)
11.02.2010 11:00 -4.2 C 72 % 1004.8 hPa 0.2 l/m 2.6 km/h (1 Bft) N-NO 0.00 h 113 W/m -8.5 C -4.7 C 5.9 km/h (2 Bft)
11.02.2010 12:00 -3.8 C 71 % 1004.4 hPa 0.0 l/m 3.1 km/h (1 Bft) NO 0.00 h 134 W/m -8.3 C -4.4 C 6.6 km/h (2 Bft)
11.02.2010 13:00 -4.0 C 72 % 1004.3 hPa 0.0 l/m 2.3 km/h (1 Bft) O 0.00 h 118 W/m -8.2 C -4.3 C 5.1 km/h (1 Bft)
11.02.2010 14:00 -4.0 C 74 % 1004.3 hPa 0.0 l/m 2.5 km/h (1 Bft) O-SO 0.00 h 103 W/m -7.9 C -4.4 C 5.9 km/h (2 Bft)
11.02.2010 15:00 -3.9 C 77 % 1004.5 hPa 0.0 l/m 1.3 km/h (1 Bft) N-NO 0.00 h 64 W/m -7.3 C -4.0 C 3.8 km/h (1 Bft)
11.02.2010 16:00 -3.7 C 78 % 1004.9 hPa 0.2 l/m 2.6 km/h (1 Bft) N 0.00 h 32 W/m -7.0 C -4.3 C 5.6 km/h (1 Bft)
11.02.2010 17:00 -4.1 C 80 % 1005.3 hPa 0.0 l/m 0.5 km/h (0 Bft) N-NO 0.00 h 11 W/m -6.9 C -4.1 C 1.8 km/h (1 Bft)
11.02.2010 18:00 -4.5 C 83 % 1005.9 hPa 0.0 l/m 0.1 km/h (0 Bft) O-SO 0.00 h 0 W/m -6.9 C -4.5 C 0.4 km/h (0 Bft)
11.02.2010 19:00 -4.8 C 85 % 1006.4 hPa 0.0 l/m 0.0 km/h (0 Bft) O-SO 0.00 h 0 W/m -6.9 C -4.8 C 0.3 km/h (0 Bft)
11.02.2010 20:00 -4.9 C 86 % 1006.7 hPa 0.0 l/m 0.0 km/h (0 Bft) N 0.00 h 0 W/m -6.9 C -4.9 C 0.0 km/h (0 Bft)
11.02.2010 21:00 -5.2 C 87 % 1007.0 hPa 0.2 l/m 0.0 km/h (0 Bft) N 0.00 h 0 W/m -7.0 C -5.2 C 0.0 km/h (0 Bft)
11.02.2010 22:00 -5.3 C 88 % 1007.2 hPa 0.0 l/m 0.2 km/h (0 Bft) O-SO 0.00 h 0 W/m -7.0 C -5.3 C 0.9 km/h (0 Bft)
11.02.2010 23:00 -5.3 C 89 % 1007.4 hPa 0.0 l/m 0.1 km/h (0 Bft) O-SO 0.00 h 0 W/m -6.9 C -5.3 C 0.8 km/h (0 Bft)
12.02.2010 00:00 -5.0 C 90 % 1007.7 hPa 0.0 l/m 1.7 km/h (1 Bft) N 0.00 h 0 W/m -6.5 C -5.1 C 3.4 km/h (1 Bft)
12.02.2010 01:00 -4.8 C 90 % 1008.0 hPa 0.0 l/m 0.8 km/h (0 Bft) N 0.00 h 0 W/m -6.2 C -4.9 C 1.9 km/h (1 Bft)
12.02.2010 02:00 -4.8 C 90 % 1008.3 hPa 0.0 l/m 0.1 km/h (0 Bft) N 0.00 h 0 W/m -6.2 C -4.8 C 0.5 km/h (0 Bft)
12.02.2010 03:00 -4.8 C 90 % 1008.6 hPa 0.0 l/m 0.0 km/h (0 Bft) N 0.00 h 0 W/m -6.2 C -4.8 C 0.1 km/h (0 Bft)
12.02.2010 04:00 -4.7 C 90 % 1009.0 hPa 0.0 l/m 0.3 km/h (0 Bft) N-NO 0.00 h 0 W/m -6.1 C -4.7 C 1.0 km/h (0 Bft)
12.02.2010 05:00 -4.7 C 88 % 1009.6 hPa 0.2 l/m 0.1 km/h (0 Bft) N-NO 0.00 h 0 W/m -6.3 C -4.7 C 0.9 km/h (0 Bft)
12.02.2010 06:00 -4.7 C 86 % 1010.0 hPa 0.0 l/m 0.3 km/h (0 Bft) NO 0.00 h 0 W/m -6.7 C -4.7 C 1.2 km/h (1 Bft)
12.02.2010 07:00 -4.9 C 85 % 1010.8 hPa 0.0 l/m 0.5 km/h (0 Bft) N-NO 0.00 h 5 W/m -7.1 C -4.9 C 1.9 km/h (1 Bft)
12.02.2010 08:00 -4.8 C 84 % 1011.6 hPa 0.0 l/m 0.5 km/h (0 Bft) N-NO 0.00 h 13 W/m -7.1 C -4.8 C 1.7 km/h (1 Bft)
12.02.2010 09:00 -4.2 C 82 % 1012.1 hPa 0.2 l/m 0.7 km/h (0 Bft) N 0.00 h 34 W/m -6.8 C -4.2 C 2.4 km/h (1 Bft)
12.02.2010 10:00 -3.5 C 74 % 1012.4 hPa 0.0 l/m 1.4 km/h (1 Bft) O 0.00 h 61 W/m -7.4 C -3.6 C 3.7 km/h (1 Bft)
12.02.2010 11:00 -2.4 C 67 % 1012.8 hPa 0.0 l/m 2.3 km/h (1 Bft) O-SO 0.00 h 144 W/m -7.8 C -2.8 C 5.4 km/h (1 Bft)
12.02.2010 12:00 -1.7 C 63 % 1012.7 hPa 0.2 l/m 3.1 km/h (1 Bft) O-SO 0.95 h 375 W/m -7.8 C -2.3 C 5.8 km/h (2 Bft)
12.02.2010 13:00 -1.5 C 60 % 1012.7 hPa 0.0 l/m 2.9 km/h (1 Bft) O-SO 0.95 h 350 W/m -8.1 C -2.1 C 5.3 km/h (1 Bft)
12.02.2010 14:00 -0.6 C 57 % 1012.7 hPa 0.0 l/m 2.1 km/h (1 Bft) N-NW 0.78 h 269 W/m -8.1 C -0.9 C 4.6 km/h (1 Bft)
12.02.2010 15:00 -1.5 C 59 % 1013.0 hPa 0.0 l/m 2.5 km/h (1 Bft) O 0.22 h 152 W/m -8.4 C -1.8 C 4.7 km/h (1 Bft)
12.02.2010 16:00 -1.8 C 61 % 1013.6 hPa 0.0 l/m 1.8 km/h (1 Bft) O-NO 0.00 h 57 W/m -8.3 C -1.9 C 4.7 km/h (1 Bft)
12.02.2010 17:00 -2.7 C 65 % 1014.2 hPa 0.0 l/m 2.3 km/h (1 Bft) O-SO 0.13 h 21 W/m -8.3 C -3.0 C 4.0 km/h (1 Bft)
12.02.2010 18:00 -4.0 C 74 % 1014.9 hPa 0.0 l/m 2.0 km/h (1 Bft) O-SO 0.00 h 0 W/m -8.0 C -4.0 C 3.7 km/h (1 Bft)
12.02.2010 19:00 -4.6 C 77 % 1015.2 hPa 0.0 l/m 2.4 km/h (1 Bft) SO 0.00 h 0 W/m -8.0 C -4.7 C 3.8 km/h (1 Bft)
12.02.2010 20:00 -5.8 C 79 % 1015.4 hPa 0.0 l/m 4.1 km/h (1 Bft) SO 0.00 h 0 W/m -8.8 C -7.0 C 5.6 km/h (1 Bft)
12.02.2010 21:00 -6.6 C 82 % 1015.7 hPa 0.0 l/m 3.5 km/h (1 Bft) O 0.00 h 0 W/m -9.1 C -7.1 C 5.0 km/h (1 Bft)
12.02.2010 22:00 -7.1 C 85 % 1015.8 hPa 0.0 l/m 2.2 km/h (1 Bft) O 0.00 h 0 W/m -9.2 C -7.1 C 3.6 km/h (1 Bft)
12.02.2010 23:00 -7.6 C 85 % 1015.7 hPa 0.0 l/m 3.1 km/h (1 Bft) O 0.00 h 0 W/m -9.7 C -7.7 C 4.1 km/h (1 Bft)
13.02.2010 00:00 -8.8 C 86 % 1015.7 hPa 0.0 l/m 3.2 km/h (1 Bft) O 0.00 h 0 W/m -10.7 C -9.1 C 4.6 km/h (1 Bft)
13.02.2010 01:00 -9.4 C 86 % 1015.7 hPa 0.0 l/m 1.3 km/h (1 Bft) O 0.00 h 0 W/m -11.3 C -9.4 C 2.5 km/h (1 Bft)
13.02.2010 02:00 -9.5 C 87 % 1015.6 hPa 0.0 l/m 2.8 km/h (1 Bft) O 0.00 h 0 W/m -11.2 C -9.6 C 3.8 km/h (1 Bft)
13.02.2010 03:00 -9.6 C 87 % 1015.3 hPa 0.0 l/m 1.9 km/h (1 Bft) O 0.00 h 0 W/m -11.4 C -9.6 C 3.2 km/h (1 Bft)
13.02.2010 04:00 -9.6 C 87 % 1015.3 hPa 0.0 l/m 1.8 km/h (1 Bft) O 0.00 h 0 W/m -11.4 C -9.6 C 2.6 km/h (1 Bft)
13.02.2010 05:00 -9.0 C 87 % 1015.4 hPa 0.0 l/m 0.1 km/h (0 Bft) O 0.00 h 0 W/m -10.7 C -9.0 C 0.4 km/h (0 Bft)
13.02.2010 06:00 -8.3 C 88 % 1015.1 hPa 0.0 l/m 0.6 km/h (0 Bft) O 0.00 h 0 W/m -10.0 C -8.3 C 1.4 km/h (1 Bft)
13.02.2010 07:00 -7.9 C 88 % 1015.3 hPa 0.0 l/m 1.2 km/h (1 Bft) O 0.00 h 5 W/m -9.5 C -7.9 C 2.0 km/h (1 Bft)
13.02.2010 08:00 -7.2 C 88 % 1015.5 hPa 0.0 l/m 0.2 km/h (0 Bft) O 0.00 h 23 W/m -8.8 C -7.2 C 0.5 km/h (0 Bft)
13.02.2010 09:00 -6.2 C 88 % 1015.5 hPa 0.0 l/m 1.0 km/h (0 Bft) W 0.00 h 77 W/m -7.8 C -6.2 C 2.6 km/h (1 Bft)
13.02.2010 10:00 -4.9 C 86 % 1015.4 hPa 0.0 l/m 1.3 km/h (1 Bft) NW 0.00 h 115 W/m -6.9 C -4.9 C 2.9 km/h (1 Bft)
13.02.2010 11:00 -4.0 C 83 % 1015.2 hPa 0.0 l/m 0.6 km/h (0 Bft) NW 0.00 h 113 W/m -6.5 C -4.0 C 2.0 km/h (1 Bft)
13.02.2010 12:00 -2.8 C 80 % 1014.8 hPa 0.0 l/m 1.5 km/h (1 Bft) NW 0.00 h 202 W/m -5.8 C -2.9 C 3.4 km/h (1 Bft)
13.02.2010 13:00 -1.6 C 75 % 1014.2 hPa 0.0 l/m 1.3 km/h (1 Bft) NW 0.12 h 217 W/m -5.4 C -1.6 C 3.0 km/h (1 Bft)
13.02.2010 14:00 -1.4 C 73 % 1013.8 hPa 0.0 l/m 0.2 km/h (0 Bft) NW 0.00 h 145 W/m -5.6 C -1.4 C 0.6 km/h (0 Bft)
13.02.2010 15:00 -0.9 C 72 % 1013.6 hPa 0.0 l/m 0.5 km/h (0 Bft) NW 0.00 h 122 W/m -5.2 C -0.9 C 1.9 km/h (1 Bft)
13.02.2010 16:00 -1.1 C 72 % 1013.8 hPa 0.0 l/m 0.3 km/h (0 Bft) NW 0.00 h 34 W/m -5.4 C -1.1 C 1.1 km/h (1 Bft)
13.02.2010 17:00 -1.7 C 76 % 1014.0 hPa 0.0 l/m 0.0 km/h (0 Bft) N 0.00 h 8 W/m -5.3 C -1.7 C 0.1 km/h (0 Bft)
13.02.2010 18:00 -2.2 C 78 % 1014.2 hPa 0.0 l/m 0.0 km/h (0 Bft) N 0.00 h 0 W/m -5.4 C -2.2 C 0.1 km/h (0 Bft)
13.02.2010 19:00 -2.3 C 80 % 1014.2 hPa 0.0 l/m 0.4 km/h (0 Bft) NW 0.00 h 0 W/m -5.3 C -2.3 C 1.5 km/h (1 Bft)
13.02.2010 20:00 -2.4 C 82 % 1014.1 hPa 0.0 l/m 0.9 km/h (0 Bft) NW 0.00 h 0 W/m -5.1 C -2.4 C 2.4 km/h (1 Bft)
13.02.2010 21:00 -2.6 C 84 % 1014.2 hPa 0.0 l/m 0.3 km/h (0 Bft) NW 0.00 h 0 W/m -5.0 C -2.6 C 1.2 km/h (1 Bft)
13.02.2010 22:00 -2.8 C 83 % 1014.0 hPa 0.0 l/m 0.0 km/h (0 Bft) NW 0.00 h 0 W/m -5.2 C -2.8 C 0.2 km/h (0 Bft)
13.02.2010 23:00 -2.9 C 84 % 1013.9 hPa 0.0 l/m 0.0 km/h (0 Bft) N 0.00 h 0 W/m -5.2 C -2.9 C 0.1 km/h (0 Bft)
14.02.2010 00:00 -3.0 C 84 % 1013.9 hPa 0.0 l/m 0.7 km/h (0 Bft) NW 0.00 h 0 W/m -5.2 C -3.0 C 2.0 km/h (1 Bft)
14.02.2010 01:00 -2.9 C 85 % 1013.7 hPa 0.0 l/m 0.3 km/h (0 Bft) NW 0.00 h 0 W/m -5.1 C -2.9 C 1.3 km/h (1 Bft)
14.02.2010 02:00 -3.0 C 85 % 1013.6 hPa 0.0 l/m 0.4 km/h (0 Bft) NW 0.00 h 0 W/m -5.1 C -3.0 C 1.2 km/h (1 Bft)
14.02.2010 03:00 -3.0 C 86 % 1013.2 hPa 0.0 l/m 0.9 km/h (0 Bft) NW 0.00 h 0 W/m -5.0 C -3.0 C 2.1 km/h (1 Bft)
14.02.2010 04:00 -3.2 C 86 % 1013.1 hPa 0.0 l/m 1.8 km/h (1 Bft) N-NW 0.00 h 0 W/m -5.2 C -3.2 C 4.0 km/h (1 Bft)
14.02.2010 05:00 -3.2 C 87 % 1013.1 hPa 0.0 l/m 1.5 km/h (1 Bft) N-NW 0.00 h 0 W/m -5.1 C -3.2 C 3.4 km/h (1 Bft)
14.02.2010 06:00 -3.3 C 87 % 1013.1 hPa 0.0 l/m 0.9 km/h (0 Bft) N-NW 0.00 h 0 W/m -5.1 C -3.3 C 2.6 km/h (1 Bft)
14.02.2010 07:00 -3.3 C 87 % 1013.2 hPa 0.0 l/m 0.4 km/h (0 Bft) NW 0.00 h 6 W/m -5.1 C -3.3 C 1.7 km/h (1 Bft)
14.02.2010 08:00 -3.3 C 88 % 1013.3 hPa 0.0 l/m 0.3 km/h (0 Bft) N-NW 0.00 h 22 W/m -5.1 C -3.3 C 1.6 km/h (1 Bft)
14.02.2010 09:00 -2.9 C 87 % 1013.4 hPa 0.0 l/m 0.3 km/h (0 Bft) N-NW 0.00 h 83 W/m -4.7 C -2.9 C 1.0 km/h (0 Bft)
14.02.2010 10:00 -2.3 C 83 % 1013.5 hPa 0.0 l/m 0.6 km/h (0 Bft) N-NW 0.00 h 119 W/m -4.7 C -2.3 C 2.0 km/h (1 Bft)
14.02.2010 11:00 -1.2 C 78 % 1013.5 hPa 0.0 l/m 0.5 km/h (0 Bft) N-NW 0.00 h 188 W/m -4.6 C -1.2 C 2.0 km/h (1 Bft)
14.02.2010 12:00 -0.6 C 71 % 1012.8 hPa 0.0 l/m 0.5 km/h (0 Bft) N-NW 0.00 h 201 W/m -5.2 C -0.6 C 1.9 km/h (1 Bft)
14.02.2010 13:00 -0.6 C 69 % 1012.4 hPa 0.0 l/m 0.6 km/h (0 Bft) N-NW 0.00 h 152 W/m -5.6 C -0.6 C 1.3 km/h (1 Bft)
14.02.2010 14:00 -1.2 C 69 % 1012.4 hPa 0.0 l/m 0.9 km/h (0 Bft) N-NW 0.00 h 98 W/m -6.1 C -1.2 C 2.0 km/h (1 Bft)
14.02.2010 15:00 -1.3 C 72 % 1012.3 hPa 0.0 l/m 0.9 km/h (0 Bft) NW 0.00 h 68 W/m -5.6 C -1.3 C 2.2 km/h (1 Bft)
14.02.2010 16:00 -1.5 C 71 % 1012.1 hPa 0.0 l/m 2.8 km/h (1 Bft) W 0.00 h 39 W/m -6.0 C -1.7 C 4.9 km/h (1 Bft)
14.02.2010 17:00 -1.9 C 72 % 1012.2 hPa 0.0 l/m 1.2 km/h (1 Bft) W 0.00 h 12 W/m -6.2 C -1.9 C 2.9 km/h (1 Bft)
14.02.2010 18:00 -2.2 C 75 % 1012.3 hPa 0.0 l/m 1.3 km/h (1 Bft) W-SW 0.00 h 0 W/m -6.1 C -2.2 C 3.2 km/h (1 Bft)
14.02.2010 19:00 -2.4 C 77 % 1012.3 hPa 0.0 l/m 3.1 km/h (1 Bft) W-NW 0.00 h 0 W/m -5.9 C -2.7 C 5.5 km/h (1 Bft)
14.02.2010 20:00 -2.7 C 78 % 1012.6 hPa 0.0 l/m 2.7 km/h (1 Bft) W-NW 0.00 h 0 W/m -6.0 C -3.0 C 5.1 km/h (1 Bft)
14.02.2010 21:00 -2.8 C 76 % 1012.4 hPa 0.0 l/m 2.1 km/h (1 Bft) W-NW 0.00 h 0 W/m -6.4 C -3.1 C 4.3 km/h (1 Bft)
14.02.2010 22:00 -2.9 C 78 % 1012.1 hPa 0.0 l/m 0.5 km/h (0 Bft) W-NW 0.00 h 0 W/m -6.2 C -2.9 C 1.9 km/h (1 Bft)
14.02.2010 23:00 -3.0 C 78 % 1011.9 hPa 0.0 l/m 0.9 km/h (0 Bft) W-NW 0.00 h 0 W/m -6.2 C -3.1 C 2.4 km/h (1 Bft)
Min-Datum _ 13.02.10 12.02.10 09.02.10 - 08.02.10 - - - 13.02.10 13.02.10 08.02.10
_ Min-Zeit 04:00 14:14 15:45 - 00:09 - - - 03:44 02:56 00:09
Minimum _ -9.9 C 56 % 1000.7 hPa - 0.0 km/h (0 Bft) - - - -11.7 C -12.6 C 0.0 km/h (0 Bft)
Max-Datum _ 09.02.10 10.02.10 12.02.10 09.02.10 08.02.10 - 09.02.10 12.02.10 08.02.10 09.02.10 08.02.10
_ Max-Zeit 14:11 07:34 21:30 23:13 11:35 - 09:59 12:14 00:00 14:11 07:52
Maximum _ 2.2 C 91 % 1015.8 hPa 0.4 l/m 13.9 km/h
O (3 Bft)
- 0.02 h 473 W/m -1.9 C 2.2 C 20.9 km/h
N-NO (4 Bft)
Durchschnitt _ -2.9 C 79 % 1008.8 hPa #5.2 l/m 1.6 km/h (1 Bft) O-SO #5:33 h 39 W/m -6.1 C -3.1 C 3.3 km/h (1 Bft)
© Kaiko 2010